sensor_id;sensor_type;location;lat;lon;timestamp;temperature;humidity
62154;DHT22;48140;45.486;9.226;2024-02-16T00:01:42;10.70;99.90
62154;DHT22;48140;45.486;9.226;2024-02-16T00:04:08;10.70;99.90
62154;DHT22;48140;45.486;9.226;2024-02-16T00:06:33;10.70;99.90
62154;DHT22;48140;45.486;9.226;2024-02-16T00:08:59;10.70;99.90
62154;DHT22;48140;45.486;9.226;2024-02-16T00:11:25;10.70;99.90
62154;DHT22;48140;45.486;9.226;2024-02-16T00:13:50;10.60;99.90
62154;DHT22;48140;45.486;9.226;2024-02-16T00:16:16;10.50;99.90
62154;DHT22;48140;45.486;9.226;2024-02-16T00:18:41;10.60;99.90
62154;DHT22;48140;45.486;9.226;2024-02-16T00:21:07;10.60;99.90
62154;DHT22;48140;45.486;9.226;2024-02-16T00:23:33;10.60;99.90
62154;DHT22;48140;45.486;9.226;2024-02-16T00:25:59;10.50;99.90
62154;DHT22;48140;45.486;9.226;2024-02-16T00:28:26;10.60;99.90
62154;DHT22;48140;45.486;9.226;2024-02-16T00:30:51;10.60;99.90
62154;DHT22;48140;45.486;9.226;2024-02-16T00:33:17;10.60;99.90
62154;DHT22;48140;45.486;9.226;2024-02-16T00:35:44;10.60;99.90
62154;DHT22;48140;45.486;9.226;2024-02-16T00:38:10;10.60;99.90
62154;DHT22;48140;45.486;9.226;2024-02-16T00:40:35;10.50;99.90
62154;DHT22;48140;45.486;9.226;2024-02-16T00:43:01;10.50;99.90
62154;DHT22;48140;45.486;9.226;2024-02-16T00:45:26;10.40;99.90
62154;DHT22;48140;45.486;9.226;2024-02-16T00:47:52;10.40;99.90
62154;DHT22;48140;45.486;9.226;2024-02-16T00:50:18;10.40;99.90
62154;DHT22;48140;45.486;9.226;2024-02-16T00:52:44;10.40;99.90
62154;DHT22;48140;45.486;9.226;2024-02-16T00:55:10;10.40;99.90
62154;DHT22;48140;45.486;9.226;2024-02-16T00:57:38;10.40;99.90
62154;DHT22;48140;45.486;9.226;2024-02-16T01:00:03;10.40;99.90
62154;DHT22;48140;45.486;9.226;2024-02-16T01:02:29;10.40;99.90
62154;DHT22;48140;45.486;9.226;2024-02-16T01:04:57;10.30;99.90
62154;DHT22;48140;45.486;9.226;2024-02-16T01:07:27;10.40;99.90
62154;DHT22;48140;45.486;9.226;2024-02-16T01:09:52;10.40;99.90
62154;DHT22;48140;45.486;9.226;2024-02-16T01:12:18;10.40;99.90
62154;DHT22;48140;45.486;9.226;2024-02-16T01:14:43;10.40;99.90
62154;DHT22;48140;45.486;9.226;2024-02-16T01:17:09;10.40;99.90
62154;DHT22;48140;45.486;9.226;2024-02-16T01:19:34;10.30;99.90
62154;DHT22;48140;45.486;9.226;2024-02-16T01:22:00;10.30;99.90
62154;DHT22;48140;45.486;9.226;2024-02-16T01:24:25;10.30;99.90
62154;DHT22;48140;45.486;9.226;2024-02-16T01:26:52;10.40;99.90
62154;DHT22;48140;45.486;9.226;2024-02-16T01:29:17;10.30;99.90
62154;DHT22;48140;45.486;9.226;2024-02-16T01:31:43;10.30;99.90
62154;DHT22;48140;45.486;9.226;2024-02-16T01:34:08;10.20;99.90
62154;DHT22;48140;45.486;9.226;2024-02-16T01:36:34;10.30;99.90
62154;DHT22;48140;45.486;9.226;2024-02-16T01:38:59;10.20;99.90
62154;DHT22;48140;45.486;9.226;2024-02-16T01:41:25;10.30;99.90
62154;DHT22;48140;45.486;9.226;2024-02-16T01:43:53;10.70;99.90
62154;DHT22;48140;45.486;9.226;2024-02-16T01:46:20;10.20;99.90
62154;DHT22;48140;45.486;9.226;2024-02-16T01:48:45;10.10;99.90
62154;DHT22;48140;45.486;9.226;2024-02-16T01:54:14;10.10;99.90
62154;DHT22;48140;45.486;9.226;2024-02-16T01:56:43;10.00;99.90
62154;DHT22;48140;45.486;9.226;2024-02-16T01:59:10;10.00;99.90
62154;DHT22;48140;45.486;9.226;2024-02-16T02:01:36;10.00;99.90
62154;DHT22;48140;45.486;9.226;2024-02-16T02:04:04;10.00;99.90
62154;DHT22;48140;45.486;9.226;2024-02-16T02:11:55;9.90;99.90
62154;DHT22;48140;45.486;9.226;2024-02-16T02:14:23;9.90;99.90
62154;DHT22;48140;45.486;9.226;2024-02-16T02:16:51;9.90;99.90
62154;DHT22;48140;45.486;9.226;2024-02-16T02:19:17;9.90;99.90
62154;DHT22;48140;45.486;9.226;2024-02-16T02:21:43;10.00;99.90
62154;DHT22;48140;45.486;9.226;2024-02-16T02:24:08;10.00;99.90
62154;DHT22;48140;45.486;9.226;2024-02-16T02:26:34;9.90;99.90
62154;DHT22;48140;45.486;9.226;2024-02-16T02:29:01;9.90;99.90
62154;DHT22;48140;45.486;9.226;2024-02-16T02:31:26;10.00;99.90
62154;DHT22;48140;45.486;9.226;2024-02-16T02:33:52;9.90;99.90
62154;DHT22;48140;45.486;9.226;2024-02-16T02:36:18;9.80;99.90
62154;DHT22;48140;45.486;9.226;2024-02-16T02:38:44;9.80;99.90
62154;DHT22;48140;45.486;9.226;2024-02-16T02:41:09;9.80;99.90
62154;DHT22;48140;45.486;9.226;2024-02-16T02:43:35;9.80;99.90
62154;DHT22;48140;45.486;9.226;2024-02-16T02:46:00;9.80;99.90
62154;DHT22;48140;45.486;9.226;2024-02-16T02:48:26;9.70;99.90
62154;DHT22;48140;45.486;9.226;2024-02-16T02:50:52;9.80;99.90
62154;DHT22;48140;45.486;9.226;2024-02-16T02:53:17;9.80;99.90
62154;DHT22;48140;45.486;9.226;2024-02-16T02:55:43;9.80;99.90
62154;DHT22;48140;45.486;9.226;2024-02-16T02:58:10;9.80;99.90
62154;DHT22;48140;45.486;9.226;2024-02-16T03:00:36;9.70;99.90
62154;DHT22;48140;45.486;9.226;2024-02-16T03:03:02;9.70;99.90
62154;DHT22;48140;45.486;9.226;2024-02-16T03:05:27;9.80;99.90
62154;DHT22;48140;45.486;9.226;2024-02-16T03:07:53;9.80;99.90
62154;DHT22;48140;45.486;9.226;2024-02-16T03:10:18;9.80;99.90
62154;DHT22;48140;45.486;9.226;2024-02-16T03:12:47;9.80;99.90
62154;DHT22;48140;45.486;9.226;2024-02-16T03:15:15;9.70;99.90
62154;DHT22;48140;45.486;9.226;2024-02-16T03:17:43;9.70;99.90
62154;DHT22;48140;45.486;9.226;2024-02-16T03:20:09;9.80;99.90
62154;DHT22;48140;45.486;9.226;2024-02-16T03:22:34;9.80;99.90
62154;DHT22;48140;45.486;9.226;2024-02-16T03:27:36;9.70;99.90
62154;DHT22;48140;45.486;9.226;2024-02-16T03:30:03;9.80;99.90
62154;DHT22;48140;45.486;9.226;2024-02-16T03:32:31;9.80;99.90
62154;DHT22;48140;45.486;9.226;2024-02-16T03:34:57;9.80;99.90
62154;DHT22;48140;45.486;9.226;2024-02-16T03:37:22;9.80;99.90
62154;DHT22;48140;45.486;9.226;2024-02-16T03:39:48;9.70;99.90
62154;DHT22;48140;45.486;9.226;2024-02-16T03:42:13;9.80;99.90
62154;DHT22;48140;45.486;9.226;2024-02-16T04:00:11;9.70;99.90
62154;DHT22;48140;45.486;9.226;2024-02-16T04:02:38;9.80;99.90
62154;DHT22;48140;45.486;9.226;2024-02-16T04:15:25;9.70;99.90
62154;DHT22;48140;45.486;9.226;2024-02-16T04:17:51;9.70;99.90
62154;DHT22;48140;45.486;9.226;2024-02-16T04:20:16;9.80;99.90
62154;DHT22;48140;45.486;9.226;2024-02-16T04:22:43;9.70;99.90
62154;DHT22;48140;45.486;9.226;2024-02-16T04:25:08;9.80;99.90
62154;DHT22;48140;45.486;9.226;2024-02-16T04:27:37;9.70;99.90
62154;DHT22;48140;45.486;9.226;2024-02-16T04:32:38;9.60;99.90
62154;DHT22;48140;45.486;9.226;2024-02-16T04:35:04;9.70;99.90
62154;DHT22;48140;45.486;9.226;2024-02-16T04:40:06;9.70;99.90
62154;DHT22;48140;45.486;9.226;2024-02-16T04:42:31;9.70;99.90
62154;DHT22;48140;45.486;9.226;2024-02-16T04:47:32;9.60;99.90
62154;DHT22;48140;45.486;9.226;2024-02-16T04:49:58;9.70;99.90
62154;DHT22;48140;45.486;9.226;2024-02-16T04:57:48;9.80;99.90
62154;DHT22;48140;45.486;9.226;2024-02-16T05:00:14;9.80;99.90
62154;DHT22;48140;45.486;9.226;2024-02-16T05:02:45;9.70;99.90
62154;DHT22;48140;45.486;9.226;2024-02-16T05:10:21;9.80;99.90
62154;DHT22;48140;45.486;9.226;2024-02-16T05:12:47;9.80;99.90
62154;DHT22;48140;45.486;9.226;2024-02-16T05:15:13;9.80;99.90
62154;DHT22;48140;45.486;9.226;2024-02-16T05:22:49;9.80;99.90
62154;DHT22;48140;45.486;9.226;2024-02-16T05:25:18;9.70;99.90
62154;DHT22;48140;45.486;9.226;2024-02-16T05:30:16;9.70;99.90
62154;DHT22;48140;45.486;9.226;2024-02-16T05:40:41;9.60;99.90
62154;DHT22;48140;45.486;9.226;2024-02-16T05:43:21;9.60;99.90
62154;DHT22;48140;45.486;9.226;2024-02-16T05:45:47;9.60;99.90
62154;DHT22;48140;45.486;9.226;2024-02-16T05:48:12;9.60;99.90
62154;DHT22;48140;45.486;9.226;2024-02-16T05:50:38;9.60;99.90
62154;DHT22;48140;45.486;9.226;2024-02-16T05:53:04;9.60;99.90
62154;DHT22;48140;45.486;9.226;2024-02-16T05:55:29;9.60;99.90
62154;DHT22;48140;45.486;9.226;2024-02-16T05:57:55;9.50;99.90
62154;DHT22;48140;45.486;9.226;2024-02-16T06:00:20;9.60;99.90
62154;DHT22;48140;45.486;9.226;2024-02-16T06:02:47;9.60;99.90
62154;DHT22;48140;45.486;9.226;2024-02-16T06:05:12;9.60;99.90
62154;DHT22;48140;45.486;9.226;2024-02-16T06:07:38;9.50;99.90
62154;DHT22;48140;45.486;9.226;2024-02-16T06:10:04;9.60;99.90
62154;DHT22;48140;45.486;9.226;2024-02-16T06:12:33;9.60;99.90
62154;DHT22;48140;45.486;9.226;2024-02-16T06:14:58;9.50;99.90
62154;DHT22;48140;45.486;9.226;2024-02-16T06:17:24;9.60;99.90
62154;DHT22;48140;45.486;9.226;2024-02-16T06:19:50;9.50;99.90
62154;DHT22;48140;45.486;9.226;2024-02-16T06:22:16;9.50;99.90
62154;DHT22;48140;45.486;9.226;2024-02-16T06:24:41;9.50;99.90
62154;DHT22;48140;45.486;9.226;2024-02-16T06:27:07;9.50;99.90
62154;DHT22;48140;45.486;9.226;2024-02-16T06:29:36;9.60;99.90
62154;DHT22;48140;45.486;9.226;2024-02-16T06:32:01;9.50;99.90
62154;DHT22;48140;45.486;9.226;2024-02-16T06:34:30;9.60;99.90
62154;DHT22;48140;45.486;9.226;2024-02-16T06:36:56;9.60;99.90
62154;DHT22;48140;45.486;9.226;2024-02-16T06:39:21;9.60;99.90
62154;DHT22;48140;45.486;9.226;2024-02-16T06:41:47;9.50;99.90
62154;DHT22;48140;45.486;9.226;2024-02-16T06:44:14;9.60;99.90
62154;DHT22;48140;45.486;9.226;2024-02-16T06:46:41;9.60;99.90
62154;DHT22;48140;45.486;9.226;2024-02-16T06:49:06;9.60;99.90
62154;DHT22;48140;45.486;9.226;2024-02-16T06:51:32;9.50;99.90
62154;DHT22;48140;45.486;9.226;2024-02-16T06:54:00;9.60;99.90
62154;DHT22;48140;45.486;9.226;2024-02-16T06:56:26;9.60;99.90
62154;DHT22;48140;45.486;9.226;2024-02-16T06:58:51;9.70;99.90
62154;DHT22;48140;45.486;9.226;2024-02-16T07:01:17;9.70;99.90
62154;DHT22;48140;45.486;9.226;2024-02-16T07:03:45;9.80;99.90
62154;DHT22;48140;45.486;9.226;2024-02-16T07:06:11;9.80;99.90
62154;DHT22;48140;45.486;9.226;2024-02-16T07:08:42;9.80;99.90
62154;DHT22;48140;45.486;9.226;2024-02-16T07:11:08;9.90;99.90
62154;DHT22;48140;45.486;9.226;2024-02-16T07:13:40;9.90;99.90
62154;DHT22;48140;45.486;9.226;2024-02-16T07:16:06;10.00;99.90
62154;DHT22;48140;45.486;9.226;2024-02-16T07:18:34;10.00;99.90
62154;DHT22;48140;45.486;9.226;2024-02-16T07:21:00;10.00;99.90
62154;DHT22;48140;45.486;9.226;2024-02-16T07:23:26;10.10;99.90
62154;DHT22;48140;45.486;9.226;2024-02-16T07:25:52;10.20;99.90
62154;DHT22;48140;45.486;9.226;2024-02-16T07:28:24;10.30;99.90
62154;DHT22;48140;45.486;9.226;2024-02-16T07:30:50;10.30;99.90
62154;DHT22;48140;45.486;9.226;2024-02-16T07:33:16;10.40;99.90
62154;DHT22;48140;45.486;9.226;2024-02-16T07:35:42;10.50;99.90
62154;DHT22;48140;45.486;9.226;2024-02-16T07:38:07;10.50;99.90
62154;DHT22;48140;45.486;9.226;2024-02-16T07:40:33;10.70;99.90
62154;DHT22;48140;45.486;9.226;2024-02-16T07:42:58;10.70;99.90
62154;DHT22;48140;45.486;9.226;2024-02-16T07:45:32;10.70;99.90
62154;DHT22;48140;45.486;9.226;2024-02-16T07:47:58;10.80;99.90
62154;DHT22;48140;45.486;9.226;2024-02-16T07:50:23;10.90;99.90
62154;DHT22;48140;45.486;9.226;2024-02-16T07:52:49;11.10;99.90
62154;DHT22;48140;45.486;9.226;2024-02-16T07:55:15;11.30;99.90
62154;DHT22;48140;45.486;9.226;2024-02-16T07:57:43;11.40;99.90
62154;DHT22;48140;45.486;9.226;2024-02-16T08:00:09;11.50;99.90
62154;DHT22;48140;45.486;9.226;2024-02-16T08:02:36;11.70;99.90
62154;DHT22;48140;45.486;9.226;2024-02-16T08:05:02;11.70;99.90
62154;DHT22;48140;45.486;9.226;2024-02-16T08:07:27;11.70;99.90
62154;DHT22;48140;45.486;9.226;2024-02-16T08:09:53;11.60;99.90
62154;DHT22;48140;45.486;9.226;2024-02-16T08:12:18;11.50;99.90
62154;DHT22;48140;45.486;9.226;2024-02-16T08:14:44;11.60;99.90
62154;DHT22;48140;45.486;9.226;2024-02-16T08:17:11;11.40;99.90
62154;DHT22;48140;45.486;9.226;2024-02-16T08:19:37;11.30;99.90
62154;DHT22;48140;45.486;9.226;2024-02-16T08:22:06;11.30;99.90
62154;DHT22;48140;45.486;9.226;2024-02-16T08:24:32;11.30;99.90
62154;DHT22;48140;45.486;9.226;2024-02-16T08:26:58;11.40;99.90
62154;DHT22;48140;45.486;9.226;2024-02-16T08:29:24;11.40;99.90
62154;DHT22;48140;45.486;9.226;2024-02-16T08:31:51;11.40;99.90
62154;DHT22;48140;45.486;9.226;2024-02-16T08:34:16;11.30;99.90
62154;DHT22;48140;45.486;9.226;2024-02-16T08:36:46;11.40;99.90
62154;DHT22;48140;45.486;9.226;2024-02-16T08:39:12;11.40;99.90
62154;DHT22;48140;45.486;9.226;2024-02-16T08:41:38;11.40;99.90
62154;DHT22;48140;45.486;9.226;2024-02-16T08:44:04;11.40;99.90
62154;DHT22;48140;45.486;9.226;2024-02-16T08:46:30;11.60;99.90
62154;DHT22;48140;45.486;9.226;2024-02-16T08:48:55;11.80;99.90
62154;DHT22;48140;45.486;9.226;2024-02-16T08:51:21;11.90;99.90
62154;DHT22;48140;45.486;9.226;2024-02-16T08:53:47;12.00;99.90
62154;DHT22;48140;45.486;9.226;2024-02-16T08:56:12;12.00;99.90
62154;DHT22;48140;45.486;9.226;2024-02-16T08:58:38;12.30;99.90
62154;DHT22;48140;45.486;9.226;2024-02-16T09:01:04;12.60;99.90
62154;DHT22;48140;45.486;9.226;2024-02-16T09:03:30;13.10;99.90
62154;DHT22;48140;45.486;9.226;2024-02-16T09:06:02;13.40;99.90
62154;DHT22;48140;45.486;9.226;2024-02-16T09:08:27;13.50;99.90
62154;DHT22;48140;45.486;9.226;2024-02-16T09:11:01;13.70;99.80
62154;DHT22;48140;45.486;9.226;2024-02-16T09:13:39;13.90;99.00
62154;DHT22;48140;45.486;9.226;2024-02-16T09:16:05;14.50;97.40
62154;DHT22;48140;45.486;9.226;2024-02-16T09:18:31;15.00;95.60
62154;DHT22;48140;45.486;9.226;2024-02-16T09:20:57;15.10;94.60
62154;DHT22;48140;45.486;9.226;2024-02-16T09:23:22;15.20;93.60
62154;DHT22;48140;45.486;9.226;2024-02-16T09:25:48;15.20;92.90
62154;DHT22;48140;45.486;9.226;2024-02-16T09:28:14;15.40;92.30
62154;DHT22;48140;45.486;9.226;2024-02-16T09:30:40;15.80;90.70
62154;DHT22;48140;45.486;9.226;2024-02-16T09:33:06;15.60;90.80
62154;DHT22;48140;45.486;9.226;2024-02-16T09:35:32;15.40;90.50
62154;DHT22;48140;45.486;9.226;2024-02-16T09:37:58;15.70;89.60
62154;DHT22;48140;45.486;9.226;2024-02-16T09:40:23;15.50;89.30
62154;DHT22;48140;45.486;9.226;2024-02-16T09:42:49;15.80;87.90
62154;DHT22;48140;45.486;9.226;2024-02-16T09:45:15;15.90;84.50
62154;DHT22;48140;45.486;9.226;2024-02-16T09:47:50;15.70;86.40
62154;DHT22;48140;45.486;9.226;2024-02-16T09:50:17;15.80;84.70
62154;DHT22;48140;45.486;9.226;2024-02-16T09:52:47;15.80;85.10
62154;DHT22;48140;45.486;9.226;2024-02-16T09:55:13;16.40;83.30
62154;DHT22;48140;45.486;9.226;2024-02-16T09:57:38;16.30;84.00
62154;DHT22;48140;45.486;9.226;2024-02-16T10:00:04;16.50;82.60
62154;DHT22;48140;45.486;9.226;2024-02-16T10:02:42;17.50;80.90
62154;DHT22;48140;45.486;9.226;2024-02-16T10:05:14;17.50;77.70
62154;DHT22;48140;45.486;9.226;2024-02-16T10:07:40;17.70;75.10
62154;DHT22;48140;45.486;9.226;2024-02-16T10:10:06;17.40;75.20
62154;DHT22;48140;45.486;9.226;2024-02-16T10:12:32;17.10;75.10
62154;DHT22;48140;45.486;9.226;2024-02-16T10:14:57;17.20;74.80
62154;DHT22;48140;45.486;9.226;2024-02-16T10:17:24;17.00;76.70
62154;DHT22;48140;45.486;9.226;2024-02-16T10:19:56;17.00;77.00
62154;DHT22;48140;45.486;9.226;2024-02-16T10:22:22;17.10;76.70
62154;DHT22;48140;45.486;9.226;2024-02-16T10:24:48;17.60;75.70
62154;DHT22;48140;45.486;9.226;2024-02-16T10:27:15;17.60;73.70
62154;DHT22;48140;45.486;9.226;2024-02-16T10:29:43;18.30;71.60
62154;DHT22;48140;45.486;9.226;2024-02-16T10:32:09;18.20;69.30
62154;DHT22;48140;45.486;9.226;2024-02-16T10:34:35;18.00;69.60
62154;DHT22;48140;45.486;9.226;2024-02-16T10:37:04;17.50;70.60
62154;DHT22;48140;45.486;9.226;2024-02-16T10:39:31;17.30;73.20
62154;DHT22;48140;45.486;9.226;2024-02-16T10:41:57;17.00;71.90
62154;DHT22;48140;45.486;9.226;2024-02-16T10:44:24;17.30;71.40
62154;DHT22;48140;45.486;9.226;2024-02-16T10:46:50;17.20;70.80
62154;DHT22;48140;45.486;9.226;2024-02-16T10:49:17;17.10;71.20
62154;DHT22;48140;45.486;9.226;2024-02-16T10:51:47;17.00;70.50
62154;DHT22;48140;45.486;9.226;2024-02-16T10:54:15;16.80;71.70
62154;DHT22;48140;45.486;9.226;2024-02-16T10:56:41;17.00;71.60
62154;DHT22;48140;45.486;9.226;2024-02-16T10:59:07;17.30;70.60
62154;DHT22;48140;45.486;9.226;2024-02-16T11:01:37;17.30;68.30
62154;DHT22;48140;45.486;9.226;2024-02-16T11:04:06;17.10;69.50
62154;DHT22;48140;45.486;9.226;2024-02-16T11:06:47;17.40;68.80
62154;DHT22;48140;45.486;9.226;2024-02-16T11:09:25;17.40;68.00
62154;DHT22;48140;45.486;9.226;2024-02-16T11:11:52;17.20;68.50
62154;DHT22;48140;45.486;9.226;2024-02-16T11:14:18;16.90;68.40
62154;DHT22;48140;45.486;9.226;2024-02-16T11:16:44;17.00;69.70
62154;DHT22;48140;45.486;9.226;2024-02-16T11:19:10;16.80;70.70
62154;DHT22;48140;45.486;9.226;2024-02-16T11:21:35;16.90;70.20
62154;DHT22;48140;45.486;9.226;2024-02-16T11:24:07;16.80;71.60
62154;DHT22;48140;45.486;9.226;2024-02-16T11:26:41;17.20;70.90
62154;DHT22;48140;45.486;9.226;2024-02-16T11:29:08;17.20;70.40
62154;DHT22;48140;45.486;9.226;2024-02-16T11:31:35;17.00;71.50
62154;DHT22;48140;45.486;9.226;2024-02-16T11:34:01;16.80;72.50
62154;DHT22;48140;45.486;9.226;2024-02-16T11:36:26;16.70;73.20
62154;DHT22;48140;45.486;9.226;2024-02-16T11:38:52;16.70;72.70
62154;DHT22;48140;45.486;9.226;2024-02-16T11:41:17;17.00;73.30
62154;DHT22;48140;45.486;9.226;2024-02-16T11:43:43;17.10;73.70
62154;DHT22;48140;45.486;9.226;2024-02-16T11:46:12;17.20;71.70
62154;DHT22;48140;45.486;9.226;2024-02-16T11:48:38;17.50;71.80
62154;DHT22;48140;45.486;9.226;2024-02-16T11:51:04;17.20;72.10
62154;DHT22;48140;45.486;9.226;2024-02-16T11:53:30;17.20;71.80
62154;DHT22;48140;45.486;9.226;2024-02-16T11:55:56;17.90;71.90
62154;DHT22;48140;45.486;9.226;2024-02-16T11:58:21;18.90;67.60
62154;DHT22;48140;45.486;9.226;2024-02-16T12:00:48;18.70;66.90
62154;DHT22;48140;45.486;9.226;2024-02-16T12:03:20;18.40;67.70
62154;DHT22;48140;45.486;9.226;2024-02-16T12:05:50;19.10;65.50
62154;DHT22;48140;45.486;9.226;2024-02-16T12:08:15;19.80;62.80
62154;DHT22;48140;45.486;9.226;2024-02-16T12:10:42;19.40;62.50
62154;DHT22;48140;45.486;9.226;2024-02-16T12:13:08;19.50;61.80
62154;DHT22;48140;45.486;9.226;2024-02-16T12:15:34;19.80;61.30
62154;DHT22;48140;45.486;9.226;2024-02-16T12:18:00;20.60;59.70
62154;DHT22;48140;45.486;9.226;2024-02-16T12:20:26;20.80;57.90
62154;DHT22;48140;45.486;9.226;2024-02-16T12:22:52;20.10;58.00
62154;DHT22;48140;45.486;9.226;2024-02-16T12:25:17;19.90;58.80
62154;DHT22;48140;45.486;9.226;2024-02-16T12:27:43;20.20;58.00
62154;DHT22;48140;45.486;9.226;2024-02-16T12:30:08;21.00;56.20
62154;DHT22;48140;45.486;9.226;2024-02-16T12:32:34;20.80;55.60
62154;DHT22;48140;45.486;9.226;2024-02-16T12:35:00;19.90;57.80
62154;DHT22;48140;45.486;9.226;2024-02-16T12:37:25;20.40;56.40
62154;DHT22;48140;45.486;9.226;2024-02-16T12:39:51;20.30;57.00
62154;DHT22;48140;45.486;9.226;2024-02-16T12:42:16;19.90;57.30
62154;DHT22;48140;45.486;9.226;2024-02-16T12:44:42;19.90;57.10
62154;DHT22;48140;45.486;9.226;2024-02-16T12:47:08;19.40;57.90
62154;DHT22;48140;45.486;9.226;2024-02-16T12:49:33;18.70;60.70
62154;DHT22;48140;45.486;9.226;2024-02-16T12:52:01;18.40;61.50
62154;DHT22;48140;45.486;9.226;2024-02-16T12:54:26;18.00;63.40
62154;DHT22;48140;45.486;9.226;2024-02-16T12:56:52;17.60;64.80
62154;DHT22;48140;45.486;9.226;2024-02-16T12:59:18;18.10;63.40
62154;DHT22;48140;45.486;9.226;2024-02-16T13:01:44;18.20;63.30
62154;DHT22;48140;45.486;9.226;2024-02-16T13:04:11;18.50;62.40
62154;DHT22;48140;45.486;9.226;2024-02-16T13:06:38;18.90;61.40
62154;DHT22;48140;45.486;9.226;2024-02-16T13:09:03;19.10;60.60
62154;DHT22;48140;45.486;9.226;2024-02-16T13:11:29;18.90;60.70
62154;DHT22;48140;45.486;9.226;2024-02-16T13:13:55;18.10;62.50
62154;DHT22;48140;45.486;9.226;2024-02-16T13:16:21;18.00;63.40
62154;DHT22;48140;45.486;9.226;2024-02-16T13:18:46;18.90;61.80
62154;DHT22;48140;45.486;9.226;2024-02-16T13:21:12;19.60;58.30
62154;DHT22;48140;45.486;9.226;2024-02-16T13:23:37;18.80;59.90
62154;DHT22;48140;45.486;9.226;2024-02-16T13:26:04;18.90;60.40
62154;DHT22;48140;45.486;9.226;2024-02-16T13:28:29;19.00;60.10
62154;DHT22;48140;45.486;9.226;2024-02-16T13:30:55;19.20;59.80
62154;DHT22;48140;45.486;9.226;2024-02-16T13:33:21;19.90;57.80
62154;DHT22;48140;45.486;9.226;2024-02-16T13:35:46;19.90;57.10
62154;DHT22;48140;45.486;9.226;2024-02-16T13:38:12;20.40;55.50
62154;DHT22;48140;45.486;9.226;2024-02-16T13:40:39;20.60;54.40
62154;DHT22;48140;45.486;9.226;2024-02-16T13:43:04;20.30;55.10
62154;DHT22;48140;45.486;9.226;2024-02-16T13:45:47;20.00;55.10
62154;DHT22;48140;45.486;9.226;2024-02-16T13:48:13;19.40;56.60
62154;DHT22;48140;45.486;9.226;2024-02-16T13:50:39;18.00;60.20
62154;DHT22;48140;45.486;9.226;2024-02-16T13:53:04;17.90;61.50
62154;DHT22;48140;45.486;9.226;2024-02-16T13:55:29;17.80;61.50
62154;DHT22;48140;45.486;9.226;2024-02-16T13:57:55;17.40;62.90
62154;DHT22;48140;45.486;9.226;2024-02-16T14:00:21;16.90;64.60
62154;DHT22;48140;45.486;9.226;2024-02-16T14:02:46;16.50;65.10
62154;DHT22;48140;45.486;9.226;2024-02-16T14:05:13;16.40;65.80
62154;DHT22;48140;45.486;9.226;2024-02-16T14:07:38;16.00;67.50
62154;DHT22;48140;45.486;9.226;2024-02-16T14:10:04;15.70;68.00
62154;DHT22;48140;45.486;9.226;2024-02-16T14:12:29;15.90;68.40
62154;DHT22;48140;45.486;9.226;2024-02-16T14:14:55;16.00;68.40
62154;DHT22;48140;45.486;9.226;2024-02-16T14:17:21;15.70;68.30
62154;DHT22;48140;45.486;9.226;2024-02-16T14:19:46;15.60;68.40
62154;DHT22;48140;45.486;9.226;2024-02-16T14:22:12;15.40;68.90
62154;DHT22;48140;45.486;9.226;2024-02-16T14:24:37;15.20;69.70
62154;DHT22;48140;45.486;9.226;2024-02-16T14:27:03;15.00;70.50
62154;DHT22;48140;45.486;9.226;2024-02-16T14:29:29;15.10;70.50
62154;DHT22;48140;45.486;9.226;2024-02-16T14:31:54;15.00;71.40
62154;DHT22;48140;45.486;9.226;2024-02-16T14:34:20;15.10;71.10
62154;DHT22;48140;45.486;9.226;2024-02-16T14:36:45;15.00;71.50
62154;DHT22;48140;45.486;9.226;2024-02-16T14:39:11;15.10;70.80
62154;DHT22;48140;45.486;9.226;2024-02-16T14:41:38;15.10;71.00
62154;DHT22;48140;45.486;9.226;2024-02-16T14:44:05;15.10;70.70
62154;DHT22;48140;45.486;9.226;2024-02-16T14:46:31;15.10;71.10
62154;DHT22;48140;45.486;9.226;2024-02-16T14:48:56;15.00;70.50
62154;DHT22;48140;45.486;9.226;2024-02-16T14:51:22;15.20;70.60
62154;DHT22;48140;45.486;9.226;2024-02-16T14:53:48;15.80;69.70
62154;DHT22;48140;45.486;9.226;2024-02-16T14:56:14;16.10;67.70
62154;DHT22;48140;45.486;9.226;2024-02-16T14:58:40;16.50;66.60
62154;DHT22;48140;45.486;9.226;2024-02-16T15:01:06;16.70;65.90
62154;DHT22;48140;45.486;9.226;2024-02-16T15:03:34;16.40;65.20
62154;DHT22;48140;45.486;9.226;2024-02-16T15:06:00;16.20;65.70
62154;DHT22;48140;45.486;9.226;2024-02-16T15:08:25;16.00;66.20
62154;DHT22;48140;45.486;9.226;2024-02-16T15:10:52;16.00;66.90
62154;DHT22;48140;45.486;9.226;2024-02-16T15:13:17;15.90;66.50
62154;DHT22;48140;45.486;9.226;2024-02-16T15:15:43;15.60;67.40
62154;DHT22;48140;45.486;9.226;2024-02-16T15:18:09;15.20;68.30
62154;DHT22;48140;45.486;9.226;2024-02-16T15:20:34;14.70;69.30
62154;DHT22;48140;45.486;9.226;2024-02-16T15:23:00;14.80;70.10
62154;DHT22;48140;45.486;9.226;2024-02-16T15:25:26;15.00;70.00
62154;DHT22;48140;45.486;9.226;2024-02-16T15:27:51;15.00;69.50
62154;DHT22;48140;45.486;9.226;2024-02-16T15:30:18;14.90;70.70
62154;DHT22;48140;45.486;9.226;2024-02-16T15:32:43;15.00;70.40
62154;DHT22;48140;45.486;9.226;2024-02-16T15:35:09;15.00;70.00
62154;DHT22;48140;45.486;9.226;2024-02-16T15:37:34;14.90;70.80
62154;DHT22;48140;45.486;9.226;2024-02-16T15:40:00;14.60;72.40
62154;DHT22;48140;45.486;9.226;2024-02-16T15:42:26;14.50;72.50
62154;DHT22;48140;45.486;9.226;2024-02-16T15:44:53;14.30;73.80
62154;DHT22;48140;45.486;9.226;2024-02-16T15:47:19;14.30;74.00
62154;DHT22;48140;45.486;9.226;2024-02-16T15:49:44;14.30;74.50
62154;DHT22;48140;45.486;9.226;2024-02-16T15:52:10;14.30;74.60
62154;DHT22;48140;45.486;9.226;2024-02-16T15:54:36;14.20;75.10
62154;DHT22;48140;45.486;9.226;2024-02-16T15:57:02;14.30;75.70
62154;DHT22;48140;45.486;9.226;2024-02-16T15:59:27;14.20;76.60
62154;DHT22;48140;45.486;9.226;2024-02-16T16:01:53;14.20;76.10
62154;DHT22;48140;45.486;9.226;2024-02-16T16:04:18;14.00;76.90
62154;DHT22;48140;45.486;9.226;2024-02-16T16:06:44;13.90;77.00
62154;DHT22;48140;45.486;9.226;2024-02-16T16:09:10;13.90;77.80
62154;DHT22;48140;45.486;9.226;2024-02-16T16:11:35;14.00;77.90
62154;DHT22;48140;45.486;9.226;2024-02-16T16:14:01;14.00;78.50
62154;DHT22;48140;45.486;9.226;2024-02-16T16:16:28;13.80;79.40
62154;DHT22;48140;45.486;9.226;2024-02-16T16:18:53;13.90;79.60
62154;DHT22;48140;45.486;9.226;2024-02-16T16:21:22;13.90;78.60
62154;DHT22;48140;45.486;9.226;2024-02-16T16:23:48;13.80;78.40
62154;DHT22;48140;45.486;9.226;2024-02-16T16:26:17;13.80;78.30
62154;DHT22;48140;45.486;9.226;2024-02-16T16:28:46;13.80;78.30
62154;DHT22;48140;45.486;9.226;2024-02-16T16:31:11;13.80;78.50
62154;DHT22;48140;45.486;9.226;2024-02-16T16:33:37;13.70;78.90
62154;DHT22;48140;45.486;9.226;2024-02-16T16:36:02;13.70;79.30
62154;DHT22;48140;45.486;9.226;2024-02-16T16:38:29;13.60;80.00
62154;DHT22;48140;45.486;9.226;2024-02-16T16:40:55;13.50;80.10